Time;durP1;ratioP1;P1;durP2;ratioP2;P2;SDS_P1;SDS_P2;PMS_P1;PMS_P2;Temp;Humidity;BMP_temperature;BMP_pressure;BME280_temperature;BME280_humidity;BME280_pressure;Samples;Min_cycle;Max_cycle;Signal;HPM_P1;HPM_P2
2022/06/19 00:02:03;;;;;;;2.60;2.50;;;16.90;86.90;;;;;;5046173;28;20225;-74
2022/06/19 00:04:30;;;;;;;2.65;2.55;;;16.80;87.20;;;;;;5045309;28;20214;-74
2022/06/19 00:06:56;;;;;;;2.25;2.17;;;16.80;87.10;;;;;;5044868;28;20191;-73
2022/06/19 00:09:24;;;;;;;2.47;2.38;;;16.80;87.60;;;;;;5041586;28;20761;-74
2022/06/19 00:11:50;;;;;;;3.33;3.13;;;16.80;87.50;;;;;;5046162;28;20264;-74
2022/06/19 00:14:16;;;;;;;3.80;2.22;;;16.80;87.30;;;;;;5043528;28;20234;-74
2022/06/19 00:16:42;;;;;;;2.85;2.60;;;16.80;87.30;;;;;;5044308;28;20188;-74
2022/06/19 00:19:07;;;;;;;2.60;2.35;;;16.80;87.40;;;;;;5045433;28;20183;-75
2022/06/19 00:21:33;;;;;;;2.03;1.92;;;16.70;87.10;;;;;;5043170;28;20219;-74
2022/06/19 00:23:59;;;;;;;2.78;2.67;;;16.70;86.90;;;;;;5041888;28;20582;-74
2022/06/19 00:26:25;;;;;;;2.20;2.20;;;16.70;87.20;;;;;;5043947;28;20669;-74
2022/06/19 00:28:50;;;;;;;2.30;2.10;;;16.70;87.50;;;;;;5040801;28;20263;-73
2022/06/19 00:31:16;;;;;;;2.33;2.22;;;16.70;87.30;;;;;;5045128;28;20272;-74
2022/06/19 00:33:42;;;;;;;3.22;2.22;;;16.70;87.40;;;;;;5042348;28;22536;-74
2022/06/19 00:36:09;;;;;;;2.78;2.63;;;16.60;87.20;;;;;;5044025;28;20191;-74
2022/06/19 00:38:34;;;;;;;2.72;2.55;;;16.60;87.40;;;;;;5043561;28;20187;-73
2022/06/19 00:41:02;;;;;;;2.35;2.25;;;16.60;87.60;;;;;;5042679;28;20875;-75
2022/06/19 00:43:29;;;;;;;3.38;2.67;;;16.60;87.20;;;;;;5045083;28;20203;-74
2022/06/19 00:46:04;;;;;;;8.75;2.78;;;16.60;87.40;;;;;;5045651;28;20574;-74
2022/06/19 00:48:37;;;;;;;2.53;2.42;;;16.60;87.10;;;;;;5043444;28;20187;-74
2022/06/19 00:51:05;;;;;;;2.40;2.30;;;16.60;87.40;;;;;;5044721;28;20183;-74
2022/06/19 00:53:57;;;;;;;2.53;2.40;;;16.60;87.80;;;;;;5042271;28;20296;-74
2022/06/19 00:56:25;;;;;;;3.45;2.70;;;16.50;87.60;;;;;;5040625;28;21044;-74
2022/06/19 00:58:52;;;;;;;2.85;2.60;;;16.50;88.00;;;;;;5044636;28;20183;-74
2022/06/19 01:01:21;;;;;;;2.80;2.33;;;16.50;88.00;;;;;;5040669;28;20780;-73
2022/06/19 01:04:17;;;;;;;2.30;2.20;;;16.50;88.20;;;;;;5043458;28;20187;-75
2022/06/19 01:06:43;;;;;;;2.10;2.10;;;16.50;87.40;;;;;;5039724;28;20203;-74
2022/06/19 01:09:09;;;;;;;2.63;2.53;;;16.40;88.20;;;;;;5043389;28;20188;-74
2022/06/19 01:11:38;;;;;;;3.13;2.95;;;16.40;87.90;;;;;;5042679;28;20184;-74
2022/06/19 01:14:10;;;;;;;2.22;2.13;;;16.30;88.30;;;;;;5043160;28;20218;-75
2022/06/19 01:16:37;;;;;;;5.22;2.67;;;16.30;88.50;;;;;;5042091;28;20575;-74
2022/06/19 01:19:07;;;;;;;2.72;2.63;;;16.30;88.50;;;;;;5039861;28;20203;-74
2022/06/19 01:21:47;;;;;;;2.50;2.40;;;16.20;88.30;;;;;;5044086;28;20211;-74
2022/06/19 01:24:36;;;;;;;4.68;2.30;;;16.20;87.70;;;;;;5044940;28;20191;-74
2022/06/19 01:27:04;;;;;;;2.25;2.15;;;16.20;87.50;;;;;;5039378;28;20848;-74
2022/06/19 01:29:33;;;;;;;2.70;2.60;;;16.20;88.00;;;;;;5042321;28;21076;-74
2022/06/19 01:32:03;;;;;;;2.80;2.60;;;16.20;87.80;;;;;;5039965;28;20188;-74
2022/06/19 01:34:36;;;;;;;4.10;2.30;;;16.20;88.00;;;;;;5042100;28;20187;-74
2022/06/19 01:37:09;;;;;;;2.67;2.58;;;16.20;87.90;;;;;;5042935;28;20226;-74
2022/06/19 01:39:41;;;;;;;2.53;2.33;;;16.10;87.80;;;;;;5044377;28;20262;-73
2022/06/19 01:42:08;;;;;;;2.53;2.42;;;16.10;87.60;;;;;;5042268;28;20289;-73
2022/06/19 01:44:35;;;;;;;3.53;3.00;;;16.10;88.70;;;;;;5044712;28;20171;-74
2022/06/19 01:47:01;;;;;;;3.00;2.90;;;16.10;89.00;;;;;;5041685;28;20184;-73
2022/06/19 01:49:30;;;;;;;1.92;1.83;;;16.10;89.10;;;;;;5043723;28;20207;-74
2022/06/19 01:51:55;;;;;;;2.85;2.70;;;16.10;89.00;;;;;;5040991;28;20226;-73
2022/06/19 01:54:26;;;;;;;2.08;2.08;;;16.10;89.40;;;;;;5042076;28;20211;-73
2022/06/19 01:56:53;;;;;;;2.33;2.22;;;16.10;89.80;;;;;;5043436;28;20190;-73
2022/06/19 01:59:21;;;;;;;2.45;2.30;;;16.10;90.00;;;;;;5040728;28;20230;-74
2022/06/19 02:01:48;;;;;;;2.47;2.38;;;16.00;89.50;;;;;;5043734;28;20211;-74
2022/06/19 02:04:13;;;;;;;2.22;2.22;;;16.00;89.70;;;;;;5041795;28;20618;-74
2022/06/19 02:06:46;;;;;;;2.92;2.67;;;16.00;89.60;;;;;;5041876;28;20184;-74
2022/06/19 02:09:15;;;;;;;2.40;2.17;;;16.00;89.40;;;;;;5043546;28;20543;-74
2022/06/19 02:11:41;;;;;;;2.65;2.55;;;15.90;89.30;;;;;;5041988;28;20623;-74
2022/06/19 02:14:09;;;;;;;2.08;2.08;;;15.90;89.20;;;;;;5042455;28;20191;-74
2022/06/19 02:16:40;;;;;;;2.70;2.60;;;15.90;89.20;;;;;;5040243;28;20184;-74
2022/06/19 02:19:06;;;;;;;2.10;2.00;;;15.90;89.00;;;;;;5033365;28;20223;-74
2022/06/19 02:21:37;;;;;;;3.03;2.03;;;15.90;89.20;;;;;;5036405;28;20290;-72
2022/06/19 02:24:03;;;;;;;2.17;2.13;;;15.80;89.10;;;;;;5039342;28;20191;-74
2022/06/19 02:26:29;;;;;;;2.45;2.33;;;15.80;89.40;;;;;;5041965;28;20195;-74
2022/06/19 02:28:55;;;;;;;2.78;2.38;;;15.80;89.50;;;;;;5042521;28;20183;-75
2022/06/19 02:31:21;;;;;;;2.58;2.47;;;15.80;89.20;;;;;;5041111;28;20196;-74
2022/06/19 02:33:54;;;;;;;2.38;2.28;;;15.80;89.70;;;;;;5041311;28;20245;-74
2022/06/19 02:36:52;;;;;;;2.88;2.67;;;15.80;89.60;;;;;;5040841;28;20201;-74
2022/06/19 02:39:47;;;;;;;2.85;2.25;;;15.80;89.50;;;;;;4957580;28;20666;-74
2022/06/19 02:42:22;;;;;;;2.45;2.25;;;15.80;88.90;;;;;;4958127;28;20248;-74
2022/06/19 02:45:01;;;;;;;2.78;2.58;;;15.70;88.80;;;;;;4959812;28;20188;-74
2022/06/19 02:47:28;;;;;;;2.35;2.30;;;15.70;88.90;;;;;;4958371;28;20268;-74
2022/06/19 02:49:54;;;;;;;2.45;2.35;;;15.70;89.60;;;;;;4958703;28;20753;-75
2022/06/19 02:52:20;;;;;;;2.28;2.28;;;15.70;89.80;;;;;;4959359;28;20194;-74
2022/06/19 02:54:46;;;;;;;2.63;2.45;;;15.60;90.60;;;;;;4958591;28;20635;-74
2022/06/19 02:57:13;;;;;;;3.53;2.53;;;15.70;90.60;;;;;;4957709;28;20194;-74
2022/06/19 02:59:40;;;;;;;3.08;2.40;;;15.60;89.80;;;;;;4959088;28;20182;-73
2022/06/19 03:02:06;;;;;;;2.28;2.03;;;15.50;91.00;;;;;;4954746;28;20230;-74
2022/06/19 03:04:42;;;;;;;2.40;2.30;;;15.60;90.50;;;;;;4957061;28;20190;-74
2022/06/19 03:07:08;;;;;;;2.70;2.50;;;15.60;90.00;;;;;;4956427;28;20186;-74
2022/06/19 03:09:34;;;;;;;2.40;2.30;;;15.50;90.30;;;;;;4958504;28;20198;-74
2022/06/19 03:12:00;;;;;;;2.25;2.15;;;15.50;90.30;;;;;;4959467;28;20197;-74
2022/06/19 03:14:26;;;;;;;1.95;1.92;;;15.50;90.40;;;;;;4959219;28;20210;-74
2022/06/19 03:16:52;;;;;;;2.10;2.10;;;15.50;90.40;;;;;;5038652;28;20309;-74
2022/06/19 03:19:17;;;;;;;2.45;2.25;;;15.50;90.20;;;;;;5040430;28;20656;-76
2022/06/19 03:21:43;;;;;;;2.20;2.10;;;15.50;90.40;;;;;;5039867;28;20223;-74
2022/06/19 03:24:09;;;;;;;2.20;2.10;;;15.50;90.10;;;;;;5041076;28;20270;-74
2022/06/19 03:26:35;;;;;;;2.42;2.33;;;15.50;90.30;;;;;;5036642;28;20194;-74
2022/06/19 03:29:01;;;;;;;2.17;2.13;;;15.50;90.20;;;;;;5040735;28;20179;-74
2022/06/19 03:31:30;;;;;;;2.15;2.05;;;15.50;90.10;;;;;;5038217;28;20187;-73
2022/06/19 03:33:56;;;;;;;2.33;2.10;;;15.50;90.10;;;;;;5041485;28;20172;-75
2022/06/19 03:36:22;;;;;;;2.70;2.50;;;15.50;90.70;;;;;;5039510;28;20187;-75
2022/06/19 03:38:48;;;;;;;2.40;2.30;;;15.50;90.60;;;;;;5039185;28;21003;-75
2022/06/19 03:41:14;;;;;;;4.18;2.78;;;15.50;90.50;;;;;;5042123;28;20779;-75
2022/06/19 03:43:41;;;;;;;2.35;2.25;;;15.50;90.30;;;;;;5041266;28;20181;-74
2022/06/19 03:46:12;;;;;;;2.45;2.35;;;15.50;90.50;;;;;;5043909;28;20179;-75
2022/06/19 03:48:48;;;;;;;2.20;2.10;;;15.50;90.40;;;;;;5043639;28;20270;-75
2022/06/19 03:51:16;;;;;;;2.10;2.00;;;15.50;90.10;;;;;;5043444;28;20207;-75
2022/06/19 03:53:42;;;;;;;2.40;2.25;;;15.50;91.00;;;;;;5042585;28;20183;-74
2022/06/19 03:56:10;;;;;;;2.33;2.28;;;15.50;90.20;;;;;;5043065;28;20183;-75
2022/06/19 03:58:47;;;;;;;2.55;2.00;;;15.50;90.50;;;;;;5040865;28;20183;-75
2022/06/19 04:01:33;;;;;;;1.98;1.95;;;15.50;90.40;;;;;;5043290;28;20207;-75
2022/06/19 04:04:00;;;;;;;2.53;1.98;;;15.60;90.70;;;;;;5044928;28;20195;-75
2022/06/19 04:06:32;;;;;;;2.08;1.98;;;15.60;91.00;;;;;;5044917;28;20183;-74
2022/06/19 04:08:57;;;;;;;2.65;2.55;;;15.60;90.40;;;;;;5042003;28;20188;-75
2022/06/19 04:11:25;;;;;;;1.85;1.80;;;15.60;90.60;;;;;;5040564;28;20269;-74
2022/06/19 04:13:54;;;;;;;2.10;2.10;;;15.70;90.70;;;;;;5043906;28;20180;-75
2022/06/19 04:16:26;;;;;;;1.83;1.73;;;15.70;90.40;;;;;;5043424;28;20184;-74
2022/06/19 04:18:53;;;;;;;2.20;1.75;;;15.70;90.70;;;;;;5042487;28;20186;-74
2022/06/19 04:21:26;;;;;;;1.83;1.80;;;15.80;90.80;;;;;;5044138;28;20257;-75
2022/06/19 04:23:54;;;;;;;2.03;2.03;;;15.80;90.50;;;;;;5043789;28;20270;-74
2022/06/19 04:26:21;;;;;;;2.92;1.88;;;15.80;90.90;;;;;;5043365;28;20195;-75
2022/06/19 04:28:47;;;;;;;2.35;2.25;;;15.80;91.10;;;;;;5040030;28;20904;-75
2022/06/19 04:31:12;;;;;;;2.08;2.08;;;15.80;90.80;;;;;;5041131;28;20190;-76
2022/06/19 04:33:39;;;;;;;2.13;2.03;;;15.90;91.30;;;;;;5042292;28;20211;-75
2022/06/19 04:36:10;;;;;;;2.35;2.25;;;15.90;91.00;;;;;;5038513;28;20183;-75
2022/06/19 04:38:40;;;;;;;2.63;2.45;;;15.80;90.80;;;;;;5035723;28;21101;-75
2022/06/19 04:41:22;;;;;;;2.05;2.00;;;15.80;90.70;;;;;;5041962;28;20215;-74
2022/06/19 04:43:50;;;;;;;2.83;2.28;;;15.90;90.60;;;;;;5042365;28;20585;-75
2022/06/19 04:46:16;;;;;;;2.80;1.98;;;15.90;90.70;;;;;;5041812;28;20180;-74
2022/06/19 04:48:41;;;;;;;2.35;2.25;;;15.90;90.90;;;;;;5043187;28;20184;-74
2022/06/19 04:51:07;;;;;;;2.58;2.47;;;16.00;91.10;;;;;;5038886;28;20665;-74
2022/06/19 04:53:34;;;;;;;2.85;2.65;;;16.00;90.80;;;;;;5044102;28;20820;-74
2022/06/19 04:56:00;;;;;;;2.78;2.67;;;16.10;91.00;;;;;;5042559;28;20203;-74
2022/06/19 04:58:27;;;;;;;2.90;2.80;;;16.10;90.60;;;;;;5041835;28;20451;-74
2022/06/19 05:00:53;;;;;;;2.65;2.55;;;16.00;90.30;;;;;;5042106;28;20251;-74
2022/06/19 05:03:21;;;;;;;2.72;2.63;;;16.10;90.50;;;;;;5043392;28;20184;-75
2022/06/19 05:05:47;;;;;;;2.33;2.33;;;16.10;90.50;;;;;;5041099;28;20211;-74
2022/06/19 05:08:14;;;;;;;2.88;2.60;;;16.10;90.10;;;;;;5041327;28;20188;-75
2022/06/19 05:10:41;;;;;;;1.90;1.85;;;16.20;90.30;;;;;;5045151;28;20663;-77
2022/06/19 05:13:16;;;;;;;3.50;3.30;;;16.20;90.10;;;;;;5041717;28;20695;-73
2022/06/19 05:15:43;;;;;;;3.35;3.15;;;16.20;90.30;;;;;;5041237;28;20195;-74
2022/06/19 05:18:08;;;;;;;2.40;2.30;;;16.30;90.10;;;;;;5041325;28;20210;-74
2022/06/19 05:20:35;;;;;;;2.72;2.63;;;16.30;90.00;;;;;;5042176;28;20657;-74
2022/06/19 05:23:00;;;;;;;3.30;3.00;;;16.30;90.10;;;;;;5040126;28;20266;-75
2022/06/19 05:25:26;;;;;;;2.78;2.67;;;16.40;90.20;;;;;;5042717;28;20191;-73
2022/06/19 05:27:52;;;;;;;2.92;2.17;;;16.40;90.20;;;;;;5038837;28;20637;-75
2022/06/19 05:30:17;;;;;;;1.85;1.85;;;16.40;90.00;;;;;;5041481;28;20183;-73
2022/06/19 05:32:43;;;;;;;2.67;2.58;;;16.50;90.00;;;;;;5044291;28;20886;-74
2022/06/19 05:35:10;;;;;;;3.50;2.70;;;16.50;90.00;;;;;;5045290;28;20707;-74
2022/06/19 05:37:36;;;;;;;3.60;3.50;;;16.60;90.20;;;;;;5041900;28;20184;-74
2022/06/19 05:40:02;;;;;;;3.20;3.10;;;16.60;90.00;;;;;;5044607;28;20223;-74
2022/06/19 05:42:28;;;;;;;4.45;3.75;;;16.70;90.00;;;;;;5044418;28;20662;-75
2022/06/19 05:44:54;;;;;;;3.83;3.63;;;16.80;90.20;;;;;;5044033;28;20184;-75
2022/06/19 05:47:19;;;;;;;3.75;3.33;;;16.80;89.90;;;;;;5043661;28;20183;-74
2022/06/19 05:49:45;;;;;;;3.40;3.30;;;16.90;89.80;;;;;;5040883;28;20186;-75
2022/06/19 05:52:19;;;;;;;4.05;3.80;;;16.90;89.70;;;;;;5040579;28;20606;-75
2022/06/19 05:54:46;;;;;;;4.82;3.72;;;17.00;89.40;;;;;;5040337;28;20186;-75
2022/06/19 05:57:12;;;;;;;4.45;4.05;;;17.10;89.90;;;;;;5040429;28;20191;-75
2022/06/19 05:59:37;;;;;;;3.33;3.10;;;17.10;89.50;;;;;;5041283;28;20238;-74
2022/06/19 06:02:04;;;;;;;3.53;3.40;;;17.10;89.50;;;;;;5042949;28;20654;-74
2022/06/19 06:04:29;;;;;;;3.70;3.50;;;17.20;89.70;;;;;;5038886;28;20179;-74
2022/06/19 06:06:55;;;;;;;3.30;3.10;;;17.20;89.40;;;;;;5038563;28;20234;-74
2022/06/19 06:09:21;;;;;;;4.20;3.90;;;17.30;89.30;;;;;;5044894;28;20187;-75
2022/06/19 06:11:47;;;;;;;3.25;3.05;;;17.40;89.30;;;;;;5043378;28;20191;-74
2022/06/19 06:14:13;;;;;;;4.63;4.25;;;17.50;89.10;;;;;;5040902;28;20226;-79
2022/06/19 06:16:38;;;;;;;3.60;3.40;;;17.50;89.20;;;;;;5042022;28;20214;-75
2022/06/19 06:19:04;;;;;;;4.35;3.75;;;17.60;89.20;;;;;;5040732;28;20197;-75
2022/06/19 06:21:30;;;;;;;3.03;2.92;;;17.60;89.10;;;;;;5043048;28;20208;-77
2022/06/19 06:23:55;;;;;;;3.45;3.35;;;17.70;89.20;;;;;;5045704;28;20175;-80
2022/06/19 06:26:25;;;;;;;3.83;3.58;;;17.80;89.30;;;;;;5042069;28;20195;-78
2022/06/19 06:28:53;;;;;;;3.55;3.35;;;17.80;88.80;;;;;;5040557;28;20278;-76
2022/06/19 06:31:19;;;;;;;3.13;3.03;;;17.90;88.90;;;;;;5047709;28;20196;-78
2022/06/19 06:33:45;;;;;;;3.25;3.05;;;18.00;88.70;;;;;;5045383;28;20283;-79
2022/06/19 06:36:11;;;;;;;2.95;2.85;;;18.00;88.60;;;;;;5048505;28;20269;-78
2022/06/19 06:38:37;;;;;;;3.30;3.10;;;18.10;88.50;;;;;;5039691;28;20184;-78
2022/06/19 06:41:11;;;;;;;2.75;2.65;;;18.20;88.40;;;;;;5043681;28;20222;-78
2022/06/19 06:43:39;;;;;;;2.47;2.38;;;18.30;87.70;;;;;;5038930;28;20218;-78
2022/06/19 06:46:10;;;;;;;2.58;2.47;;;18.30;87.70;;;;;;5041656;28;20211;-80
2022/06/19 06:48:36;;;;;;;2.70;2.50;;;18.40;87.30;;;;;;5040172;28;20183;-79
2022/06/19 06:51:07;;;;;;;2.67;2.47;;;18.50;87.30;;;;;;5041740;28;20699;-79
2022/06/19 06:53:33;;;;;;;2.47;2.38;;;18.50;86.90;;;;;;5043761;28;20625;-77
2022/06/19 06:55:59;;;;;;;2.33;2.22;;;18.60;86.50;;;;;;5040832;28;20233;-78
2022/06/19 06:58:24;;;;;;;2.28;2.17;;;18.60;86.40;;;;;;5041869;28;20218;-78
2022/06/19 07:00:51;;;;;;;3.53;3.23;;;18.90;83.80;;;;;;5037238;28;20469;-78
2022/06/19 07:03:16;;;;;;;1.85;1.85;;;18.90;86.00;;;;;;5041165;28;20221;-79
2022/06/19 07:05:42;;;;;;;2.97;2.88;;;18.90;85.70;;;;;;5043557;28;20183;-78
2022/06/19 07:08:08;;;;;;;3.03;2.83;;;19.00;85.80;;;;;;5044441;28;20679;-78
2022/06/19 07:10:33;;;;;;;2.42;1.90;;;19.00;85.90;;;;;;5037615;28;20183;-78
2022/06/19 07:13:00;;;;;;;1.85;1.85;;;19.10;85.60;;;;;;5032109;28;20895;-78
2022/06/19 07:15:26;;;;;;;2.40;2.08;;;19.20;85.60;;;;;;5038734;28;20183;-80
2022/06/19 07:17:52;;;;;;;2.28;2.17;;;19.20;85.20;;;;;;5040266;28;20180;-80
2022/06/19 07:20:18;;;;;;;2.30;2.17;;;19.30;84.80;;;;;;5043189;28;20725;-80
2022/06/19 07:22:44;;;;;;;3.35;2.22;;;19.40;84.30;;;;;;5041907;28;20219;-76
2022/06/19 07:25:17;;;;;;;2.28;2.17;;;19.40;83.10;;;;;;5041865;28;20657;-78
2022/06/19 07:27:42;;;;;;;1.65;1.65;;;19.50;82.50;;;;;;5039707;28;20183;-78
2022/06/19 07:30:10;;;;;;;1.30;1.27;;;19.60;82.60;;;;;;5036744;28;20743;-82
2022/06/19 07:32:36;;;;;;;0.93;0.93;;;19.60;79.80;;;;;;5040053;28;20175;-82
2022/06/19 07:35:01;;;;;;;1.40;1.40;;;19.70;80.30;;;;;;5041787;28;20228;-82
2022/06/19 07:37:27;;;;;;;1.30;1.30;;;19.80;81.20;;;;;;5042838;28;20190;-80
2022/06/19 07:39:53;;;;;;;1.17;1.17;;;19.90;78.90;;;;;;5044031;28;20183;-82
2022/06/19 07:42:18;;;;;;;2.05;1.10;;;20.00;79.40;;;;;;5044392;28;20215;-81
2022/06/19 07:44:44;;;;;;;1.17;1.17;;;20.00;79.30;;;;;;5042350;28;20270;-81
2022/06/19 07:50:10;;;;;;;1.20;1.20;;;20.20;78.00;;;;;;5041006;28;20553;-80
2022/06/19 07:52:42;;;;;;;0.90;0.90;;;20.30;76.40;;;;;;5041862;28;20181;-81
2022/06/19 07:55:09;;;;;;;1.45;0.65;;;20.30;75.30;;;;;;5040514;28;20575;-82
2022/06/19 07:57:35;;;;;;;3.00;1.00;;;20.40;76.30;;;;;;5038622;28;20226;-81
2022/06/19 08:00:02;;;;;;;0.70;0.70;;;20.50;77.10;;;;;;5040820;28;20194;-81
2022/06/19 08:02:28;;;;;;;1.10;0.73;;;20.60;73.80;;;;;;5040758;28;20215;-81
2022/06/19 08:04:54;;;;;;;0.60;0.60;;;20.60;74.30;;;;;;5043124;28;20182;-81
2022/06/19 08:07:20;;;;;;;1.38;0.77;;;20.70;75.00;;;;;;5040750;28;20168;-79
2022/06/19 08:09:46;;;;;;;0.90;0.90;;;20.70;72.70;;;;;;5041905;28;20550;-80
2022/06/19 08:12:12;;;;;;;0.80;0.80;;;20.80;72.10;;;;;;5040799;28;20188;-80
2022/06/19 08:14:39;;;;;;;2.92;1.25;;;20.90;73.00;;;;;;5040164;28;20176;-81
2022/06/19 08:17:05;;;;;;;0.85;0.85;;;21.00;72.80;;;;;;5041091;28;20435;-80
2022/06/19 08:19:31;;;;;;;0.85;0.85;;;21.10;70.40;;;;;;5039107;28;20752;-77
2022/06/19 08:21:57;;;;;;;0.77;0.77;;;21.20;73.60;;;;;;5024141;28;20222;-76
2022/06/19 08:24:23;;;;;;;0.60;0.60;;;;;;;;;;5020654;28;20578;-78
2022/06/19 08:26:50;;;;;;;0.75;0.65;;;;;;;;;;5023523;28;20192;-77
2022/06/19 08:29:16;;;;;;;0.60;0.60;;;;;;;;;;5042605;28;20180;-77
2022/06/19 08:31:42;;;;;;;0.80;0.63;;;;;;;;;;5041941;28;20341;-75
2022/06/19 08:34:08;;;;;;;0.50;0.50;;;21.50;71.70;;;;;;5043030;28;20274;-76
2022/06/19 08:36:35;;;;;;;0.70;0.70;;;21.50;71.30;;;;;;5040690;28;20252;-76
2022/06/19 08:39:05;;;;;;;1.33;0.68;;;21.70;67.40;;;;;;5041867;28;20370;-76
2022/06/19 08:41:48;;;;;;;0.70;0.70;;;21.70;71.40;;;;;;5042519;28;20810;-76
2022/06/19 08:44:20;;;;;;;0.60;0.60;;;21.80;71.40;;;;;;5042661;28;20176;-77
2022/06/19 08:47:12;;;;;;;0.50;0.50;;;21.80;70.90;;;;;;5041756;28;20195;-78
2022/06/19 08:49:44;;;;;;;0.60;0.60;;;22.00;69.40;;;;;;5043647;28;20179;-76
2022/06/19 08:52:41;;;;;;;0.70;0.65;;;22.00;67.10;;;;;;5042858;28;20180;-76
2022/06/19 08:55:31;;;;;;;0.60;0.60;;;22.10;69.80;;;;;;5039648;28;20196;-76
2022/06/19 08:58:13;;;;;;;0.68;0.68;;;22.20;68.70;;;;;;5039243;28;20183;-77
2022/06/19 09:00:51;;;;;;;0.60;0.60;;;22.20;69.70;;;;;;5040934;28;20266;-77
2022/06/19 09:03:17;;;;;;;0.43;0.43;;;;;;;;;;5043889;28;20270;-77
2022/06/19 09:05:56;;;;;;;1.58;0.63;;;22.30;66.40;;;;;;5040781;28;20278;-77
2022/06/19 09:08:22;;;;;;;0.50;0.50;;;;;;;;;;5035785;28;20211;-76
2022/06/19 09:11:22;;;;;;;2.85;0.60;;;22.50;66.60;;;;;;5042270;28;20233;-76
2022/06/19 09:13:56;;;;;;;0.60;0.60;;;22.60;67.10;;;;;;4979056;28;20240;-77
2022/06/19 09:16:34;;;;;;;1.02;0.40;;;22.60;66.20;;;;;;4977635;28;20565;-77
2022/06/19 09:19:05;;;;;;;0.63;0.63;;;22.70;65.50;;;;;;4980943;28;20192;-77
2022/06/19 09:21:53;;;;;;;0.50;0.50;;;22.70;65.30;;;;;;4979940;28;20221;-77
2022/06/19 09:24:39;;;;;;;1.10;0.60;;;22.80;66.30;;;;;;4976585;28;20614;-76
2022/06/19 09:27:06;;;;;;;0.50;0.50;;;22.90;66.90;;;;;;4979106;28;20192;-76
2022/06/19 09:29:48;;;;;;;0.70;0.70;;;23.00;66.70;;;;;;4980593;28;20799;-76
2022/06/19 09:32:14;;;;;;;0.85;0.60;;;;;;;;;;4970399;28;20348;-76
2022/06/19 09:34:46;;;;;;;0.70;0.70;;;23.10;63.60;;;;;;4972487;28;20187;-75
2022/06/19 09:37:12;;;;;;;0.60;0.60;;;;;;;;;;4975208;28;20198;-75
2022/06/19 09:39:49;;;;;;;0.40;0.40;;;23.20;62.60;;;;;;4982882;28;20488;-76
2022/06/19 09:42:18;;;;;;;0.50;0.50;;;23.20;62.40;;;;;;4982965;28;20221;-75
2022/06/19 09:45:04;;;;;;;0.40;0.40;;;23.20;62.40;;;;;;4963119;28;20201;-77
2022/06/19 09:48:01;;;;;;;0.60;0.60;;;23.20;63.10;;;;;;4973609;28;20217;-76
2022/06/19 09:50:36;;;;;;;0.60;0.60;;;23.40;64.70;;;;;;5039766;28;20577;-77
2022/06/19 09:53:17;;;;;;;0.50;0.50;;;23.60;62.90;;;;;;5041072;28;20191;-78
2022/06/19 09:55:49;;;;;;;0.50;0.50;;;23.80;63.50;;;;;;5039520;28;20271;-77
2022/06/19 09:58:40;;;;;;;0.50;0.50;;;23.90;64.50;;;;;;5037725;28;20209;-77
2022/06/19 10:01:06;;;;;;;0.50;0.50;;;23.90;65.00;;;;;;5043461;28;20216;-78
2022/06/19 10:03:32;;;;;;;0.47;0.47;;;;;;;;;;5043178;28;20191;-77
2022/06/19 10:06:29;;;;;;;0.82;0.47;;;24.20;59.60;;;;;;5039182;28;20218;-77
2022/06/19 10:09:01;;;;;;;0.35;0.35;;;24.20;59.10;;;;;;5041896;28;20194;-77
2022/06/19 10:11:38;;;;;;;0.50;0.50;;;24.30;61.80;;;;;;5042032;28;20186;-79
2022/06/19 10:14:20;;;;;;;0.50;0.50;;;24.30;61.90;;;;;;5043531;28;20175;-78
2022/06/19 10:16:55;;;;;;;0.65;0.55;;;24.40;60.60;;;;;;5043975;28;20195;-89
2022/06/19 10:19:44;;;;;;;0.55;0.55;;;24.60;60.40;;;;;;5046443;28;20183;-79
2022/06/19 10:22:37;;;;;;;0.40;0.40;;;24.90;59.40;;;;;;5044606;28;20281;-75
2022/06/19 10:25:03;;;;;;;0.88;0.40;;;;;;;;;;5040415;28;20986;-76
2022/06/19 10:28:06;;;;;;;0.52;0.52;;;25.20;58.10;;;;;;5044614;28;20180;-76
2022/06/19 10:30:40;;;;;;;0.70;0.70;;;25.20;58.40;;;;;;5043864;28;20175;-75
2022/06/19 10:33:26;;;;;;;1.10;0.77;;;25.70;57.60;;;;;;5041121;28;20237;-75
2022/06/19 10:36:13;;;;;;;0.40;0.40;;;26.20;58.90;;;;;;5044461;28;20183;-76
2022/06/19 10:38:39;;;;;;;1.58;0.50;;;;;;;;;;5044732;28;20200;-76
2022/06/19 10:44:40;;;;;;;0.90;0.50;;;27.20;55.30;;;;;;5042397;28;20194;-76
2022/06/19 10:47:18;;;;;;;0.57;0.55;;;27.70;55.20;;;;;;5042027;28;20180;-77
2022/06/19 10:50:02;;;;;;;0.50;0.50;;;28.30;54.80;;;;;;5042045;28;20183;-77
2022/06/19 10:53:03;;;;;;;0.43;0.43;;;29.00;54.00;;;;;;5041930;28;20266;-77
2022/06/19 10:56:03;;;;;;;0.38;0.38;;;29.40;55.30;;;;;;5042240;28;20198;-76
2022/06/19 10:58:30;;;;;;;0.43;0.43;;;29.70;52.40;;;;;;5036230;28;20187;-76
2022/06/19 11:01:04;;;;;;;0.50;0.50;;;29.90;52.00;;;;;;5042406;28;20259;-77
2022/06/19 11:06:58;;;;;;;0.90;0.55;;;30.70;50.30;;;;;;4979812;28;20304;-77
2022/06/19 11:09:32;;;;;;;0.40;0.40;;;31.10;53.20;;;;;;4979830;28;20315;-77
2022/06/19 11:12:04;;;;;;;0.50;0.50;;;31.50;53.20;;;;;;4980103;28;20213;-76
2022/06/19 11:14:33;;;;;;;0.40;0.40;;;32.00;48.60;;;;;;4980380;28;20185;-77
2022/06/19 11:17:12;;;;;;;0.88;0.50;;;32.30;48.80;;;;;;4979997;28;20322;-78
2022/06/19 11:19:40;;;;;;;0.43;0.43;;;32.50;49.90;;;;;;4979682;28;20189;-77
2022/06/19 11:22:40;;;;;;;0.60;0.60;;;32.90;49.70;;;;;;4979693;28;20699;-76
2022/06/19 11:25:21;;;;;;;0.40;0.40;;;33.40;50.20;;;;;;4979936;28;20254;-76
2022/06/19 11:27:53;;;;;;;0.30;0.30;;;33.20;47.70;;;;;;4980011;28;20586;-76
2022/06/19 11:30:28;;;;;;;1.20;0.50;;;33.50;46.80;;;;;;4980080;28;20667;-77
2022/06/19 11:32:54;;;;;;;0.30;0.30;;;33.80;47.80;;;;;;4979980;28;20270;-77
2022/06/19 11:35:22;;;;;;;0.77;0.77;;;34.10;49.00;;;;;;4979507;28;20486;-77
2022/06/19 11:37:57;;;;;;;0.90;0.90;;;34.00;47.60;;;;;;4972920;28;20197;-76
2022/06/19 11:40:32;;;;;;;0.77;0.77;;;34.20;46.30;;;;;;4978840;28;20216;-75
2022/06/19 11:43:00;;;;;;;0.50;0.50;;;34.30;47.60;;;;;;5024083;28;20233;-76
2022/06/19 11:45:31;;;;;;;0.40;0.40;;;34.70;48.80;;;;;;5041651;28;20238;-76
2022/06/19 11:47:57;;;;;;;0.50;0.50;;;34.70;45.60;;;;;;5042445;28;20581;-76
2022/06/19 11:50:32;;;;;;;0.70;0.50;;;34.70;48.30;;;;;;5041839;28;20553;-75
2022/06/19 11:53:05;;;;;;;0.40;0.40;;;34.30;47.70;;;;;;5038735;28;20186;-75
2022/06/19 11:55:35;;;;;;;0.40;0.40;;;34.00;45.50;;;;;;5041612;28;20186;-75
2022/06/19 11:58:30;;;;;;;0.50;0.50;;;33.50;47.50;;;;;;5044111;28;20183;-75
2022/06/19 12:01:21;;;;;;;1.55;0.50;;;33.50;46.80;;;;;;5045359;28;20579;-75
2022/06/19 12:03:58;;;;;;;1.27;0.40;;;33.30;46.30;;;;;;5045708;28;20178;-75
2022/06/19 12:06:45;;;;;;;0.40;0.40;;;32.70;46.50;;;;;;5045280;28;20171;-76
2022/06/19 12:09:32;;;;;;;0.70;0.70;;;32.40;49.40;;;;;;5044199;28;20206;-77
2022/06/19 12:12:08;;;;;;;0.50;0.50;;;32.70;49.60;;;;;;5043541;28;20359;-76
2022/06/19 12:14:54;;;;;;;0.30;0.30;;;33.30;48.60;;;;;;5045559;28;20183;-77
2022/06/19 12:17:31;;;;;;;0.30;0.30;;;33.50;49.10;;;;;;5045564;28;20171;-77
2022/06/19 12:20:03;;;;;;;0.40;0.40;;;33.90;46.80;;;;;;5045727;28;20194;-76
2022/06/19 12:22:49;;;;;;;5.88;0.45;;;34.30;44.80;;;;;;5045143;28;20214;-78
2022/06/19 12:25:36;;;;;;;0.35;0.35;;;34.20;45.40;;;;;;5044897;28;20195;-76
2022/06/19 12:28:27;;;;;;;0.40;0.40;;;34.00;48.90;;;;;;5044866;28;20184;-76
2022/06/19 12:31:04;;;;;;;1.35;0.60;;;34.20;47.60;;;;;;5044935;28;20214;-76
2022/06/19 12:33:53;;;;;;;0.30;0.30;;;34.40;48.80;;;;;;5045060;28;20880;-76
2022/06/19 12:36:27;;;;;;;2.58;0.38;;;34.10;44.80;;;;;;5039421;28;20222;-77
2022/06/19 12:38:53;;;;;;;0.30;0.30;;;34.20;44.80;;;;;;5041218;28;20260;-75
2022/06/19 12:41:46;;;;;;;0.30;0.30;;;34.30;45.90;;;;;;5044359;28;20217;-77
2022/06/19 12:44:12;;;;;;;0.50;0.50;;;34.50;44.80;;;;;;5044144;28;20201;-78
2022/06/19 12:46:56;;;;;;;0.40;0.40;;;34.40;46.40;;;;;;5044238;28;20443;-77
2022/06/19 12:49:46;;;;;;;0.43;0.43;;;33.70;45.80;;;;;;5044581;28;20194;-76
2022/06/19 12:52:21;;;;;;;0.28;0.28;;;33.80;44.90;;;;;;5044801;28;20548;-78
2022/06/19 12:55:10;;;;;;;0.40;0.40;;;34.00;44.90;;;;;;5044612;28;20182;-76
2022/06/19 12:57:54;;;;;;;0.30;0.30;;;34.30;44.70;;;;;;5044663;28;20194;-76
2022/06/19 13:00:36;;;;;;;0.50;0.50;;;34.60;45.40;;;;;;5044907;28;20241;-76
2022/06/19 13:03:24;;;;;;;0.95;0.43;;;34.80;45.00;;;;;;5044406;28;20199;-76
2022/06/19 13:06:14;;;;;;;0.38;0.38;;;34.90;44.90;;;;;;5044397;28;20321;-77
2022/06/19 13:09:01;;;;;;;0.40;0.40;;;34.90;44.00;;;;;;5044498;28;20179;-76
2022/06/19 13:11:56;;;;;;;0.40;0.40;;;34.50;45.30;;;;;;5044166;28;20183;-75
2022/06/19 13:14:36;;;;;;;0.50;0.50;;;34.40;46.80;;;;;;5040931;28;20266;-77
2022/06/19 13:17:55;;;;;;;0.47;0.47;;;35.00;47.50;;;;;;5043600;28;20182;-77
2022/06/19 13:20:33;;;;;;;4.85;0.70;;;35.90;47.20;;;;;;4981781;28;20177;-76
2022/06/19 13:23:27;;;;;;;1.38;0.55;;;36.50;44.50;;;;;;4982062;28;20632;-77
2022/06/19 13:26:08;;;;;;;0.50;0.50;;;36.60;43.00;;;;;;4982037;28;20200;-76